sensor_id;sensor_type;location;lat;lon;timestamp;P1;durP1;ratioP1;P2;durP2;ratioP2
56063;SDS011;41940;52.880;13.012;2022-09-17T00:00:21;15.95;;;3.65;;
56063;SDS011;41940;52.880;13.012;2022-09-17T00:02:51;10.80;;;3.47;;
56063;SDS011;41940;52.880;13.012;2022-09-17T00:05:22;14.23;;;3.30;;
56063;SDS011;41940;52.880;13.012;2022-09-17T00:07:49;14.80;;;3.92;;
56063;SDS011;41940;52.880;13.012;2022-09-17T00:10:16;13.57;;;3.92;;
56063;SDS011;41940;52.880;13.012;2022-09-17T00:12:43;25.17;;;5.32;;
56063;SDS011;41940;52.880;13.012;2022-09-17T00:15:09;21.75;;;5.22;;
56063;SDS011;41940;52.880;13.012;2022-09-17T00:17:35;17.77;;;5.03;;
56063;SDS011;41940;52.880;13.012;2022-09-17T00:20:00;16.27;;;5.20;;
56063;SDS011;41940;52.880;13.012;2022-09-17T00:22:26;26.33;;;5.00;;
56063;SDS011;41940;52.880;13.012;2022-09-17T00:24:52;17.63;;;5.25;;
56063;SDS011;41940;52.880;13.012;2022-09-17T00:27:17;29.02;;;5.88;;
56063;SDS011;41940;52.880;13.012;2022-09-17T00:29:42;31.35;;;6.15;;
56063;SDS011;41940;52.880;13.012;2022-09-17T00:32:08;18.00;;;4.60;;
56063;SDS011;41940;52.880;13.012;2022-09-17T00:34:34;19.38;;;5.20;;
56063;SDS011;41940;52.880;13.012;2022-09-17T00:37:00;20.80;;;4.45;;
56063;SDS011;41940;52.880;13.012;2022-09-17T00:39:25;23.70;;;4.63;;
56063;SDS011;41940;52.880;13.012;2022-09-17T00:41:51;17.17;;;4.63;;
56063;SDS011;41940;52.880;13.012;2022-09-17T00:49:27;23.83;;;5.03;;
56063;SDS011;41940;52.880;13.012;2022-09-17T00:51:56;14.27;;;4.43;;
56063;SDS011;41940;52.880;13.012;2022-09-17T00:56:53;18.25;;;4.47;;
56063;SDS011;41940;52.880;13.012;2022-09-17T00:59:19;13.43;;;4.53;;
56063;SDS011;41940;52.880;13.012;2022-09-17T01:01:46;16.35;;;5.10;;
56063;SDS011;41940;52.880;13.012;2022-09-17T01:04:16;24.90;;;5.80;;
56063;SDS011;41940;52.880;13.012;2022-09-17T01:09:38;28.13;;;5.53;;
56063;SDS011;41940;52.880;13.012;2022-09-17T01:12:35;25.10;;;4.95;;
56063;SDS011;41940;52.880;13.012;2022-09-17T01:20:34;19.27;;;4.88;;
56063;SDS011;41940;52.880;13.012;2022-09-17T01:23:20;22.45;;;4.75;;
56063;SDS011;41940;52.880;13.012;2022-09-17T01:34:51;13.13;;;4.00;;
56063;SDS011;41940;52.880;13.012;2022-09-17T01:37:29;27.87;;;5.27;;
56063;SDS011;41940;52.880;13.012;2022-09-17T01:40:04;17.73;;;4.97;;
56063;SDS011;41940;52.880;13.012;2022-09-17T01:45:20;20.98;;;4.38;;
56063;SDS011;41940;52.880;13.012;2022-09-17T01:47:53;24.75;;;6.38;;
56063;SDS011;41940;52.880;13.012;2022-09-17T01:50:28;19.35;;;4.88;;
56063;SDS011;41940;52.880;13.012;2022-09-17T01:55:25;33.50;;;5.60;;
56063;SDS011;41940;52.880;13.012;2022-09-17T01:57:58;26.17;;;6.20;;
56063;SDS011;41940;52.880;13.012;2022-09-17T02:00:29;27.40;;;6.03;;
56063;SDS011;41940;52.880;13.012;2022-09-17T02:03:02;18.45;;;5.15;;
56063;SDS011;41940;52.880;13.012;2022-09-17T02:08:10;49.20;;;7.20;;
56063;SDS011;41940;52.880;13.012;2022-09-17T02:10:44;30.65;;;6.70;;
56063;SDS011;41940;52.880;13.012;2022-09-17T02:13:15;17.92;;;6.03;;
56063;SDS011;41940;52.880;13.012;2022-09-17T02:16:03;36.90;;;6.57;;
56063;SDS011;41940;52.880;13.012;2022-09-17T02:18:36;32.63;;;7.38;;
56063;SDS011;41940;52.880;13.012;2022-09-17T02:21:11;30.98;;;6.47;;
56063;SDS011;41940;52.880;13.012;2022-09-17T02:23:43;31.77;;;6.47;;
56063;SDS011;41940;52.880;13.012;2022-09-17T02:26:15;33.95;;;6.95;;
56063;SDS011;41940;52.880;13.012;2022-09-17T02:28:46;28.65;;;6.93;;
56063;SDS011;41940;52.880;13.012;2022-09-17T02:31:14;24.65;;;6.55;;
56063;SDS011;41940;52.880;13.012;2022-09-17T02:33:41;21.48;;;5.90;;
56063;SDS011;41940;52.880;13.012;2022-09-17T02:36:11;33.03;;;6.95;;
56063;SDS011;41940;52.880;13.012;2022-09-17T02:38:37;19.17;;;5.95;;
56063;SDS011;41940;52.880;13.012;2022-09-17T02:41:15;34.40;;;7.38;;
56063;SDS011;41940;52.880;13.012;2022-09-17T02:43:50;23.88;;;6.20;;
56063;SDS011;41940;52.880;13.012;2022-09-17T02:57:37;24.98;;;5.90;;
56063;SDS011;41940;52.880;13.012;2022-09-17T03:00:12;31.53;;;6.80;;
56063;SDS011;41940;52.880;13.012;2022-09-17T03:05:17;25.15;;;6.88;;
56063;SDS011;41940;52.880;13.012;2022-09-17T03:07:44;43.65;;;7.82;;
56063;SDS011;41940;52.880;13.012;2022-09-17T03:10:09;35.97;;;7.03;;
56063;SDS011;41940;52.880;13.012;2022-09-17T03:12:35;27.35;;;7.43;;
56063;SDS011;41940;52.880;13.012;2022-09-17T03:15:01;42.25;;;6.88;;
56063;SDS011;41940;52.880;13.012;2022-09-17T03:17:27;26.17;;;6.15;;
56063;SDS011;41940;52.880;13.012;2022-09-17T03:19:53;30.65;;;6.75;;
56063;SDS011;41940;52.880;13.012;2022-09-17T03:22:18;29.13;;;6.57;;
56063;SDS011;41940;52.880;13.012;2022-09-17T03:24:43;39.22;;;6.60;;
56063;SDS011;41940;52.880;13.012;2022-09-17T03:27:09;26.90;;;7.55;;
56063;SDS011;41940;52.880;13.012;2022-09-17T03:29:34;29.95;;;6.25;;
56063;SDS011;41940;52.880;13.012;2022-09-17T03:32:00;43.97;;;7.38;;
56063;SDS011;41940;52.880;13.012;2022-09-17T03:34:26;32.00;;;6.22;;
56063;SDS011;41940;52.880;13.012;2022-09-17T03:36:51;35.40;;;6.80;;
56063;SDS011;41940;52.880;13.012;2022-09-17T03:39:17;32.92;;;5.95;;
56063;SDS011;41940;52.880;13.012;2022-09-17T03:41:42;27.75;;;6.35;;
56063;SDS011;41940;52.880;13.012;2022-09-17T03:44:08;23.30;;;5.50;;
56063;SDS011;41940;52.880;13.012;2022-09-17T03:46:34;31.63;;;5.97;;
56063;SDS011;41940;52.880;13.012;2022-09-17T03:49:01;27.98;;;5.53;;
56063;SDS011;41940;52.880;13.012;2022-09-17T03:51:26;33.75;;;7.10;;
56063;SDS011;41940;52.880;13.012;2022-09-17T03:53:52;26.10;;;5.25;;
56063;SDS011;41940;52.880;13.012;2022-09-17T03:56:17;33.10;;;5.65;;
56063;SDS011;41940;52.880;13.012;2022-09-17T03:58:43;27.27;;;6.07;;
56063;SDS011;41940;52.880;13.012;2022-09-17T04:01:09;21.88;;;5.13;;
56063;SDS011;41940;52.880;13.012;2022-09-17T04:03:34;30.85;;;5.80;;
56063;SDS011;41940;52.880;13.012;2022-09-17T04:06:00;30.40;;;4.70;;
56063;SDS011;41940;52.880;13.012;2022-09-17T04:08:25;20.95;;;5.05;;
56063;SDS011;41940;52.880;13.012;2022-09-17T04:10:50;30.27;;;5.07;;
56063;SDS011;41940;52.880;13.012;2022-09-17T04:13:16;43.75;;;5.43;;
56063;SDS011;41940;52.880;13.012;2022-09-17T04:15:43;53.95;;;6.28;;
56063;SDS011;41940;52.880;13.012;2022-09-17T04:18:09;25.65;;;4.68;;
56063;SDS011;41940;52.880;13.012;2022-09-17T04:20:34;37.55;;;5.68;;
56063;SDS011;41940;52.880;13.012;2022-09-17T04:23:00;25.13;;;5.40;;
56063;SDS011;41940;52.880;13.012;2022-09-17T04:25:25;21.33;;;4.47;;
56063;SDS011;41940;52.880;13.012;2022-09-17T04:27:51;33.55;;;5.43;;
56063;SDS011;41940;52.880;13.012;2022-09-17T04:30:16;27.33;;;4.80;;
56063;SDS011;41940;52.880;13.012;2022-09-17T04:32:42;32.50;;;5.85;;
56063;SDS011;41940;52.880;13.012;2022-09-17T04:35:09;29.92;;;4.88;;
56063;SDS011;41940;52.880;13.012;2022-09-17T04:37:35;34.42;;;5.28;;
56063;SDS011;41940;52.880;13.012;2022-09-17T04:40:01;33.22;;;6.15;;
56063;SDS011;41940;52.880;13.012;2022-09-17T04:42:27;44.15;;;5.32;;
56063;SDS011;41940;52.880;13.012;2022-09-17T04:44:53;29.90;;;5.38;;
56063;SDS011;41940;52.880;13.012;2022-09-17T04:47:18;40.88;;;5.50;;
56063;SDS011;41940;52.880;13.012;2022-09-17T04:49:44;29.85;;;5.10;;
56063;SDS011;41940;52.880;13.012;2022-09-17T04:52:10;35.13;;;5.30;;
56063;SDS011;41940;52.880;13.012;2022-09-17T04:54:35;37.53;;;5.97;;
56063;SDS011;41940;52.880;13.012;2022-09-17T04:57:00;32.70;;;5.30;;
56063;SDS011;41940;52.880;13.012;2022-09-17T04:59:26;42.47;;;6.50;;
56063;SDS011;41940;52.880;13.012;2022-09-17T05:01:51;52.50;;;6.20;;
56063;SDS011;41940;52.880;13.012;2022-09-17T05:04:17;51.75;;;6.13;;
56063;SDS011;41940;52.880;13.012;2022-09-17T05:06:42;46.95;;;5.85;;
56063;SDS011;41940;52.880;13.012;2022-09-17T05:09:08;40.17;;;6.30;;
56063;SDS011;41940;52.880;13.012;2022-09-17T05:11:33;50.85;;;6.00;;
56063;SDS011;41940;52.880;13.012;2022-09-17T05:13:59;58.90;;;6.82;;
56063;SDS011;41940;52.880;13.012;2022-09-17T05:16:25;33.35;;;5.85;;
56063;SDS011;41940;52.880;13.012;2022-09-17T05:18:50;39.15;;;6.30;;
56063;SDS011;41940;52.880;13.012;2022-09-17T05:21:16;62.78;;;6.53;;
56063;SDS011;41940;52.880;13.012;2022-09-17T05:23:42;29.80;;;5.93;;
56063;SDS011;41940;52.880;13.012;2022-09-17T05:26:08;53.92;;;7.45;;
56063;SDS011;41940;52.880;13.012;2022-09-17T05:28:33;40.65;;;6.47;;
56063;SDS011;41940;52.880;13.012;2022-09-17T05:30:59;40.85;;;7.22;;
56063;SDS011;41940;52.880;13.012;2022-09-17T05:33:26;40.55;;;6.13;;
56063;SDS011;41940;52.880;13.012;2022-09-17T05:35:51;36.58;;;6.15;;
56063;SDS011;41940;52.880;13.012;2022-09-17T05:38:17;33.88;;;6.50;;
56063;SDS011;41940;52.880;13.012;2022-09-17T05:40:43;44.10;;;6.93;;
56063;SDS011;41940;52.880;13.012;2022-09-17T05:43:09;24.50;;;5.72;;
56063;SDS011;41940;52.880;13.012;2022-09-17T05:45:35;34.00;;;6.05;;
56063;SDS011;41940;52.880;13.012;2022-09-17T05:48:02;39.97;;;6.65;;
56063;SDS011;41940;52.880;13.012;2022-09-17T05:50:30;39.85;;;6.15;;
56063;SDS011;41940;52.880;13.012;2022-09-17T05:52:55;55.67;;;8.63;;
56063;SDS011;41940;52.880;13.012;2022-09-17T05:55:22;44.28;;;6.93;;
56063;SDS011;41940;52.880;13.012;2022-09-17T05:57:48;42.22;;;6.90;;
56063;SDS011;41940;52.880;13.012;2022-09-17T06:00:15;56.63;;;8.13;;
56063;SDS011;41940;52.880;13.012;2022-09-17T06:02:41;47.67;;;7.45;;
56063;SDS011;41940;52.880;13.012;2022-09-17T06:05:06;58.35;;;8.32;;
56063;SDS011;41940;52.880;13.012;2022-09-17T06:07:35;47.13;;;7.93;;
56063;SDS011;41940;52.880;13.012;2022-09-17T06:10:02;49.50;;;8.60;;
56063;SDS011;41940;52.880;13.012;2022-09-17T06:12:29;59.60;;;7.75;;
56063;SDS011;41940;52.880;13.012;2022-09-17T06:14:54;68.05;;;8.10;;
56063;SDS011;41940;52.880;13.012;2022-09-17T06:17:20;51.88;;;8.10;;
56063;SDS011;41940;52.880;13.012;2022-09-17T06:19:45;55.95;;;7.43;;
56063;SDS011;41940;52.880;13.012;2022-09-17T06:22:11;41.90;;;7.47;;
56063;SDS011;41940;52.880;13.012;2022-09-17T06:24:36;36.95;;;6.13;;
56063;SDS011;41940;52.880;13.012;2022-09-17T06:27:02;39.75;;;7.88;;
56063;SDS011;41940;52.880;13.012;2022-09-17T06:29:27;60.67;;;8.55;;
56063;SDS011;41940;52.880;13.012;2022-09-17T06:31:53;43.15;;;7.03;;
56063;SDS011;41940;52.880;13.012;2022-09-17T06:34:19;54.08;;;8.77;;
56063;SDS011;41940;52.880;13.012;2022-09-17T06:36:44;65.15;;;8.20;;
56063;SDS011;41940;52.880;13.012;2022-09-17T06:39:10;55.08;;;9.05;;
56063;SDS011;41940;52.880;13.012;2022-09-17T06:41:36;41.00;;;7.25;;
56063;SDS011;41940;52.880;13.012;2022-09-17T06:44:03;51.25;;;7.85;;
56063;SDS011;41940;52.880;13.012;2022-09-17T06:46:28;52.00;;;8.43;;
56063;SDS011;41940;52.880;13.012;2022-09-17T06:48:54;35.03;;;7.00;;
56063;SDS011;41940;52.880;13.012;2022-09-17T06:51:19;41.95;;;7.65;;
56063;SDS011;41940;52.880;13.012;2022-09-17T06:53:46;51.30;;;7.32;;
56063;SDS011;41940;52.880;13.012;2022-09-17T06:56:13;51.70;;;7.65;;
56063;SDS011;41940;52.880;13.012;2022-09-17T06:58:39;52.88;;;9.85;;
56063;SDS011;41940;52.880;13.012;2022-09-17T07:01:11;60.35;;;10.50;;
56063;SDS011;41940;52.880;13.012;2022-09-17T07:03:38;47.03;;;9.23;;
56063;SDS011;41940;52.880;13.012;2022-09-17T07:06:07;28.23;;;7.35;;
56063;SDS011;41940;52.880;13.012;2022-09-17T07:08:37;39.92;;;7.95;;
56063;SDS011;41940;52.880;13.012;2022-09-17T07:11:03;44.42;;;7.40;;
56063;SDS011;41940;52.880;13.012;2022-09-17T07:13:29;33.67;;;6.60;;
56063;SDS011;41940;52.880;13.012;2022-09-17T07:15:55;46.80;;;7.88;;
56063;SDS011;41940;52.880;13.012;2022-09-17T07:18:22;43.22;;;6.22;;
56063;SDS011;41940;52.880;13.012;2022-09-17T07:20:55;35.85;;;6.22;;
56063;SDS011;41940;52.880;13.012;2022-09-17T07:25:55;45.33;;;7.53;;
56063;SDS011;41940;52.880;13.012;2022-09-17T07:28:25;40.80;;;7.40;;
56063;SDS011;41940;52.880;13.012;2022-09-17T07:30:51;26.83;;;5.85;;
56063;SDS011;41940;52.880;13.012;2022-09-17T07:33:18;48.20;;;6.75;;
56063;SDS011;41940;52.880;13.012;2022-09-17T07:35:55;37.75;;;5.43;;
56063;SDS011;41940;52.880;13.012;2022-09-17T07:38:26;40.35;;;6.97;;
56063;SDS011;41940;52.880;13.012;2022-09-17T07:40:59;43.75;;;8.02;;
56063;SDS011;41940;52.880;13.012;2022-09-17T07:43:34;27.25;;;5.25;;
56063;SDS011;41940;52.880;13.012;2022-09-17T07:46:01;36.60;;;6.22;;
56063;SDS011;41940;52.880;13.012;2022-09-17T07:48:28;42.20;;;6.72;;
56063;SDS011;41940;52.880;13.012;2022-09-17T07:50:54;37.80;;;6.70;;
56063;SDS011;41940;52.880;13.012;2022-09-17T07:53:20;38.53;;;6.70;;
56063;SDS011;41940;52.880;13.012;2022-09-17T07:55:56;26.67;;;5.85;;
56063;SDS011;41940;52.880;13.012;2022-09-17T07:58:27;38.78;;;6.25;;
56063;SDS011;41940;52.880;13.012;2022-09-17T08:01:00;35.97;;;6.15;;
56063;SDS011;41940;52.880;13.012;2022-09-17T08:03:27;31.15;;;5.65;;
56063;SDS011;41940;52.880;13.012;2022-09-17T08:05:53;32.20;;;6.53;;
56063;SDS011;41940;52.880;13.012;2022-09-17T08:08:19;39.67;;;5.53;;
56063;SDS011;41940;52.880;13.012;2022-09-17T08:10:44;25.10;;;5.32;;
56063;SDS011;41940;52.880;13.012;2022-09-17T08:13:09;51.92;;;6.82;;
56063;SDS011;41940;52.880;13.012;2022-09-17T08:15:35;25.10;;;5.43;;
56063;SDS011;41940;52.880;13.012;2022-09-17T08:18:00;32.10;;;6.13;;
56063;SDS011;41940;52.880;13.012;2022-09-17T08:20:26;32.45;;;5.57;;
56063;SDS011;41940;52.880;13.012;2022-09-17T08:22:58;35.97;;;5.53;;
56063;SDS011;41940;52.880;13.012;2022-09-17T08:25:24;40.22;;;5.88;;
56063;SDS011;41940;52.880;13.012;2022-09-17T08:27:53;43.75;;;6.25;;
56063;SDS011;41940;52.880;13.012;2022-09-17T08:30:20;35.85;;;6.00;;
56063;SDS011;41940;52.880;13.012;2022-09-17T08:32:46;24.83;;;5.22;;
56063;SDS011;41940;52.880;13.012;2022-09-17T08:35:11;32.45;;;5.40;;
56063;SDS011;41940;52.880;13.012;2022-09-17T08:37:37;29.05;;;5.47;;
56063;SDS011;41940;52.880;13.012;2022-09-17T08:40:02;27.27;;;5.15;;
56063;SDS011;41940;52.880;13.012;2022-09-17T08:45:04;31.45;;;6.30;;
56063;SDS011;41940;52.880;13.012;2022-09-17T08:47:38;30.25;;;6.70;;
56063;SDS011;41940;52.880;13.012;2022-09-17T08:50:14;31.80;;;5.53;;
56063;SDS011;41940;52.880;13.012;2022-09-17T08:55:27;35.47;;;5.72;;
56063;SDS011;41940;52.880;13.012;2022-09-17T09:00:54;26.67;;;4.55;;
56063;SDS011;41940;52.880;13.012;2022-09-17T09:03:38;37.17;;;5.55;;
56063;SDS011;41940;52.880;13.012;2022-09-17T09:06:28;26.75;;;5.60;;
56063;SDS011;41940;52.880;13.012;2022-09-17T09:08:59;22.45;;;4.13;;
56063;SDS011;41940;52.880;13.012;2022-09-17T09:11:29;29.90;;;4.95;;
56063;SDS011;41940;52.880;13.012;2022-09-17T09:16:53;40.65;;;6.13;;
56063;SDS011;41940;52.880;13.012;2022-09-17T09:19:25;24.25;;;4.90;;
56063;SDS011;41940;52.880;13.012;2022-09-17T09:22:12;31.80;;;5.18;;
56063;SDS011;41940;52.880;13.012;2022-09-17T09:24:58;29.48;;;5.13;;
56063;SDS011;41940;52.880;13.012;2022-09-17T09:27:32;32.22;;;5.03;;
56063;SDS011;41940;52.880;13.012;2022-09-17T09:30:10;35.60;;;5.15;;
56063;SDS011;41940;52.880;13.012;2022-09-17T09:35:25;22.92;;;4.63;;
56063;SDS011;41940;52.880;13.012;2022-09-17T09:37:55;20.90;;;4.30;;
56063;SDS011;41940;52.880;13.012;2022-09-17T09:40:30;27.93;;;5.67;;
56063;SDS011;41940;52.880;13.012;2022-09-17T09:43:28;25.48;;;5.30;;
56063;SDS011;41940;52.880;13.012;2022-09-17T09:51:30;22.40;;;3.83;;
56063;SDS011;41940;52.880;13.012;2022-09-17T09:54:41;24.35;;;4.53;;
56063;SDS011;41940;52.880;13.012;2022-09-17T09:57:40;20.25;;;4.97;;
56063;SDS011;41940;52.880;13.012;2022-09-17T10:00:23;33.72;;;5.90;;
56063;SDS011;41940;52.880;13.012;2022-09-17T10:02:52;18.85;;;4.10;;
56063;SDS011;41940;52.880;13.012;2022-09-17T10:05:27;23.35;;;4.43;;
56063;SDS011;41940;52.880;13.012;2022-09-17T10:07:52;25.05;;;4.95;;
56063;SDS011;41940;52.880;13.012;2022-09-17T10:10:18;26.70;;;4.75;;
56063;SDS011;41940;52.880;13.012;2022-09-17T10:12:43;23.00;;;4.70;;
56063;SDS011;41940;52.880;13.012;2022-09-17T10:15:27;29.58;;;5.00;;
56063;SDS011;41940;52.880;13.012;2022-09-17T10:20:56;26.65;;;5.15;;
56063;SDS011;41940;52.880;13.012;2022-09-17T10:23:25;33.17;;;4.60;;
56063;SDS011;41940;52.880;13.012;2022-09-17T10:25:52;29.23;;;5.13;;
56063;SDS011;41940;52.880;13.012;2022-09-17T10:31:00;33.05;;;5.40;;
56063;SDS011;41940;52.880;13.012;2022-09-17T10:33:29;21.05;;;3.97;;
56063;SDS011;41940;52.880;13.012;2022-09-17T10:38:40;22.88;;;4.20;;
56063;SDS011;41940;52.880;13.012;2022-09-17T10:43:39;28.60;;;4.65;;
56063;SDS011;41940;52.880;13.012;2022-09-17T10:46:10;27.65;;;3.63;;
56063;SDS011;41940;52.880;13.012;2022-09-17T10:48:40;13.07;;;3.00;;
56063;SDS011;41940;52.880;13.012;2022-09-17T10:51:08;14.10;;;3.35;;
56063;SDS011;41940;52.880;13.012;2022-09-17T10:53:53;14.25;;;3.90;;
56063;SDS011;41940;52.880;13.012;2022-09-17T10:56:36;21.90;;;3.95;;
56063;SDS011;41940;52.880;13.012;2022-09-17T11:10:57;19.88;;;3.28;;
56063;SDS011;41940;52.880;13.012;2022-09-17T11:22:04;14.80;;;3.28;;
56063;SDS011;41940;52.880;13.012;2022-09-17T11:24:50;12.02;;;1.88;;
56063;SDS011;41940;52.880;13.012;2022-09-17T11:27:26;12.07;;;2.72;;
56063;SDS011;41940;52.880;13.012;2022-09-17T11:30:09;11.20;;;2.38;;
56063;SDS011;41940;52.880;13.012;2022-09-17T11:32:44;10.82;;;1.95;;
56063;SDS011;41940;52.880;13.012;2022-09-17T11:35:16;8.07;;;1.90;;
56063;SDS011;41940;52.880;13.012;2022-09-17T11:40:41;7.20;;;2.13;;
56063;SDS011;41940;52.880;13.012;2022-09-17T11:45:56;10.90;;;2.47;;
56063;SDS011;41940;52.880;13.012;2022-09-17T11:48:28;13.75;;;2.38;;
56063;SDS011;41940;52.880;13.012;2022-09-17T11:51:03;8.98;;;2.03;;
56063;SDS011;41940;52.880;13.012;2022-09-17T11:53:41;9.25;;;1.77;;
56063;SDS011;41940;52.880;13.012;2022-09-17T11:59:03;9.35;;;2.33;;
56063;SDS011;41940;52.880;13.012;2022-09-17T12:01:55;9.30;;;2.88;;
56063;SDS011;41940;52.880;13.012;2022-09-17T12:04:33;8.48;;;2.25;;
56063;SDS011;41940;52.880;13.012;2022-09-17T12:09:50;6.82;;;1.90;;
56063;SDS011;41940;52.880;13.012;2022-09-17T12:12:21;10.32;;;2.50;;
56063;SDS011;41940;52.880;13.012;2022-09-17T12:14:49;11.10;;;1.92;;
56063;SDS011;41940;52.880;13.012;2022-09-17T12:17:45;9.55;;;2.20;;
56063;SDS011;41940;52.880;13.012;2022-09-17T12:20:27;5.13;;;1.35;;
56063;SDS011;41940;52.880;13.012;2022-09-17T12:22:56;5.63;;;1.27;;
56063;SDS011;41940;52.880;13.012;2022-09-17T12:25:28;9.10;;;2.15;;
56063;SDS011;41940;52.880;13.012;2022-09-17T12:28:07;7.20;;;1.50;;
56063;SDS011;41940;52.880;13.012;2022-09-17T12:30:41;7.35;;;1.65;;
56063;SDS011;41940;52.880;13.012;2022-09-17T12:33:17;5.93;;;1.80;;
56063;SDS011;41940;52.880;13.012;2022-09-17T12:51:54;7.15;;;1.42;;
56063;SDS011;41940;52.880;13.012;2022-09-17T12:54:44;11.55;;;1.95;;
56063;SDS011;41940;52.880;13.012;2022-09-17T13:02:51;8.55;;;1.85;;
56063;SDS011;41940;52.880;13.012;2022-09-17T13:17:01;12.07;;;1.80;;
56063;SDS011;41940;52.880;13.012;2022-09-17T13:22:12;6.47;;;1.58;;
56063;SDS011;41940;52.880;13.012;2022-09-17T13:24:41;6.93;;;1.13;;
56063;SDS011;41940;52.880;13.012;2022-09-17T13:27:21;6.07;;;1.00;;
56063;SDS011;41940;52.880;13.012;2022-09-17T13:42:53;5.22;;;1.00;;
56063;SDS011;41940;52.880;13.012;2022-09-17T13:45:21;2.55;;;1.48;;
56063;SDS011;41940;52.880;13.012;2022-09-17T13:47:49;3.15;;;1.50;;
56063;SDS011;41940;52.880;13.012;2022-09-17T13:53:33;2.53;;;1.25;;
56063;SDS011;41940;52.880;13.012;2022-09-17T13:55:52;12.73;;;2.05;;
56063;SDS011;41940;52.880;13.012;2022-09-17T13:58:27;9.30;;;1.73;;
56063;SDS011;41940;52.880;13.012;2022-09-17T14:01:04;9.13;;;1.60;;
56063;SDS011;41940;52.880;13.012;2022-09-17T14:27:25;3.05;;;0.90;;
56063;SDS011;41940;52.880;13.012;2022-09-17T14:35:15;1.27;;;0.45;;
56063;SDS011;41940;52.880;13.012;2022-09-17T14:37:41;1.33;;;0.40;;
56063;SDS011;41940;52.880;13.012;2022-09-17T14:40:10;2.22;;;0.50;;
56063;SDS011;41940;52.880;13.012;2022-09-17T14:42:41;3.38;;;0.70;;
56063;SDS011;41940;52.880;13.012;2022-09-17T14:45:25;1.63;;;0.50;;
56063;SDS011;41940;52.880;13.012;2022-09-17T14:50:50;1.25;;;0.47;;
56063;SDS011;41940;52.880;13.012;2022-09-17T14:53:16;2.45;;;0.68;;
56063;SDS011;41940;52.880;13.012;2022-09-17T14:55:47;11.10;;;0.95;;
56063;SDS011;41940;52.880;13.012;2022-09-17T14:58:25;3.95;;;0.40;;
56063;SDS011;41940;52.880;13.012;2022-09-17T15:00:55;2.60;;;0.45;;
56063;SDS011;41940;52.880;13.012;2022-09-17T15:03:21;3.92;;;0.88;;
56063;SDS011;41940;52.880;13.012;2022-09-17T15:05:48;2.88;;;0.60;;
56063;SDS011;41940;52.880;13.012;2022-09-17T15:08:25;1.70;;;0.50;;
56063;SDS011;41940;52.880;13.012;2022-09-17T15:10:58;2.03;;;0.60;;
56063;SDS011;41940;52.880;13.012;2022-09-17T15:13:34;5.32;;;0.50;;
56063;SDS011;41940;52.880;13.012;2022-09-17T15:18:59;1.35;;;0.55;;
56063;SDS011;41940;52.880;13.012;2022-09-17T15:21:34;6.82;;;0.65;;
56063;SDS011;41940;52.880;13.012;2022-09-17T15:24:13;3.50;;;0.98;;
56063;SDS011;41940;52.880;13.012;2022-09-17T15:27:01;8.77;;;0.70;;
56063;SDS011;41940;52.880;13.012;2022-09-17T15:29:34;2.72;;;0.80;;
56063;SDS011;41940;52.880;13.012;2022-09-17T15:32:04;1.40;;;0.63;;
56063;SDS011;41940;52.880;13.012;2022-09-17T15:34:30;7.32;;;0.90;;
56063;SDS011;41940;52.880;13.012;2022-09-17T15:37:03;3.20;;;0.52;;
56063;SDS011;41940;52.880;13.012;2022-09-17T15:39:30;7.63;;;1.00;;
56063;SDS011;41940;52.880;13.012;2022-09-17T15:44:28;5.57;;;0.85;;
56063;SDS011;41940;52.880;13.012;2022-09-17T15:46:54;4.40;;;0.68;;
56063;SDS011;41940;52.880;13.012;2022-09-17T15:51:52;6.32;;;0.90;;
56063;SDS011;41940;52.880;13.012;2022-09-17T15:54:28;3.92;;;1.45;;
56063;SDS011;41940;52.880;13.012;2022-09-17T15:56:55;5.50;;;1.10;;
56063;SDS011;41940;52.880;13.012;2022-09-17T15:59:28;11.98;;;1.00;;
56063;SDS011;41940;52.880;13.012;2022-09-17T16:01:58;1.60;;;0.73;;
56063;SDS011;41940;52.880;13.012;2022-09-17T16:04:27;2.63;;;1.05;;
56063;SDS011;41940;52.880;13.012;2022-09-17T16:07:02;3.05;;;1.00;;
56063;SDS011;41940;52.880;13.012;2022-09-17T16:09:49;2.45;;;0.95;;
56063;SDS011;41940;52.880;13.012;2022-09-17T16:12:23;3.22;;;0.90;;
56063;SDS011;41940;52.880;13.012;2022-09-17T16:14:53;3.70;;;1.02;;
56063;SDS011;41940;52.880;13.012;2022-09-17T16:17:24;6.00;;;1.05;;
56063;SDS011;41940;52.880;13.012;2022-09-17T16:19:52;2.53;;;1.00;;
56063;SDS011;41940;52.880;13.012;2022-09-17T16:22:20;7.93;;;1.10;;
56063;SDS011;41940;52.880;13.012;2022-09-17T16:24:45;3.08;;;0.85;;
56063;SDS011;41940;52.880;13.012;2022-09-17T16:27:21;3.25;;;1.13;;
56063;SDS011;41940;52.880;13.012;2022-09-17T16:29:57;3.17;;;1.27;;
56063;SDS011;41940;52.880;13.012;2022-09-17T16:32:27;2.30;;;1.00;;
56063;SDS011;41940;52.880;13.012;2022-09-17T16:34:52;5.38;;;0.85;;
56063;SDS011;41940;52.880;13.012;2022-09-17T16:37:17;4.60;;;0.93;;
56063;SDS011;41940;52.880;13.012;2022-09-17T16:39:43;4.88;;;1.08;;
56063;SDS011;41940;52.880;13.012;2022-09-17T16:42:08;3.60;;;0.90;;
56063;SDS011;41940;52.880;13.012;2022-09-17T16:44:34;2.15;;;0.60;;
56063;SDS011;41940;52.880;13.012;2022-09-17T16:46:59;9.15;;;1.23;;
56063;SDS011;41940;52.880;13.012;2022-09-17T16:49:25;3.42;;;1.10;;
56063;SDS011;41940;52.880;13.012;2022-09-17T16:51:50;3.38;;;0.90;;
56063;SDS011;41940;52.880;13.012;2022-09-17T16:54:15;3.35;;;1.23;;
56063;SDS011;41940;52.880;13.012;2022-09-17T16:56:41;3.08;;;0.70;;
56063;SDS011;41940;52.880;13.012;2022-09-17T16:59:06;5.18;;;1.05;;
56063;SDS011;41940;52.880;13.012;2022-09-17T17:01:32;11.18;;;0.98;;
56063;SDS011;41940;52.880;13.012;2022-09-17T17:03:57;5.57;;;1.05;;
56063;SDS011;41940;52.880;13.012;2022-09-17T17:06:25;4.30;;;1.45;;
56063;SDS011;41940;52.880;13.012;2022-09-17T17:08:50;6.43;;;1.20;;
56063;SDS011;41940;52.880;13.012;2022-09-17T17:11:16;7.45;;;1.02;;
56063;SDS011;41940;52.880;13.012;2022-09-17T17:13:42;7.25;;;1.50;;
56063;SDS011;41940;52.880;13.012;2022-09-17T17:16:07;10.93;;;1.50;;
56063;SDS011;41940;52.880;13.012;2022-09-17T17:18:34;5.47;;;1.45;;
56063;SDS011;41940;52.880;13.012;2022-09-17T17:21:04;2.10;;;1.08;;
56063;SDS011;41940;52.880;13.012;2022-09-17T17:23:33;3.83;;;1.60;;
56063;SDS011;41940;52.880;13.012;2022-09-17T17:25:59;2.53;;;1.10;;
56063;SDS011;41940;52.880;13.012;2022-09-17T17:28:25;7.07;;;1.35;;
56063;SDS011;41940;52.880;13.012;2022-09-17T17:30:51;9.20;;;2.03;;
56063;SDS011;41940;52.880;13.012;2022-09-17T17:33:16;5.03;;;1.80;;
56063;SDS011;41940;52.880;13.012;2022-09-17T17:35:42;6.07;;;1.42;;
56063;SDS011;41940;52.880;13.012;2022-09-17T17:38:09;5.57;;;1.27;;
56063;SDS011;41940;52.880;13.012;2022-09-17T17:40:35;5.53;;;1.38;;
56063;SDS011;41940;52.880;13.012;2022-09-17T17:43:01;9.60;;;2.03;;
56063;SDS011;41940;52.880;13.012;2022-09-17T17:45:26;4.90;;;1.40;;
56063;SDS011;41940;52.880;13.012;2022-09-17T17:47:52;12.23;;;1.90;;
56063;SDS011;41940;52.880;13.012;2022-09-17T17:50:18;6.88;;;1.60;;
56063;SDS011;41940;52.880;13.012;2022-09-17T17:52:43;2.58;;;1.27;;
56063;SDS011;41940;52.880;13.012;2022-09-17T17:55:12;5.25;;;1.88;;
56063;SDS011;41940;52.880;13.012;2022-09-17T17:57:38;5.55;;;1.23;;
56063;SDS011;41940;52.880;13.012;2022-09-17T18:00:04;7.47;;;1.95;;
56063;SDS011;41940;52.880;13.012;2022-09-17T18:02:30;4.85;;;1.40;;